Time;durP1;ratioP1;P1;durP2;ratioP2;P2;SDS_P1;SDS_P2;PMS_P1;PMS_P2;Temp;Humidity;BMP_temperature;BMP_pressure;BME280_temperature;BME280_humidity;BME280_pressure;Samples;Min_cycle;Max_cycle;Signal;HPM_P1;HPM_P2
2021/07/24 00:00:08;;;;;;;15.13;6.07;;;;;;;;;;5074036;28;20940;-72
2021/07/24 00:02:36;;;;;;;10.87;6.90;;;;;;;;;;5077604;28;20549;-72
2021/07/24 00:05:04;;;;;;;11.10;8.13;;;;;;;;;;5078175;28;20449;-72
2021/07/24 00:07:32;;;;;;;10.17;6.30;;;;;;;;;;5078022;28;20445;-71
2021/07/24 00:10:00;;;;;;;8.27;5.60;;;;;;;;;;5078764;28;20545;-72
2021/07/24 00:12:30;;;;;;;9.77;5.90;;;;;;;;;;5078450;28;20518;-72
2021/07/24 00:14:59;;;;;;;10.60;6.23;;;;;;;;;;5078833;28;20797;-73
2021/07/24 00:17:29;;;;;;;12.83;6.50;;;;;;;;;;5076461;28;20452;-72
2021/07/24 00:19:57;;;;;;;9.67;5.83;;;;;;;;;;5078632;28;20491;-72
2021/07/24 00:22:25;;;;;;;8.17;5.50;;;;;;;;;;5078973;28;20987;-73
2021/07/24 00:24:53;;;;;;;10.10;6.50;;;;;;;;;;5078450;28;20484;-73
2021/07/24 00:27:21;;;;;;;7.80;5.87;;;;;;;;;;5078404;28;20452;-73
2021/07/24 00:29:50;;;;;;;9.27;5.47;;;;;;;;;;5064462;28;20518;-71
2021/07/24 00:32:18;;;;;;;11.73;5.73;;;;;;;;;;5058677;28;20939;-71
2021/07/24 00:34:47;;;;;;;10.90;6.37;;;;;;;;;;5064512;28;20475;-72
2021/07/24 00:37:16;;;;;;;8.70;5.10;;;;;;;;;;5074833;28;20448;-72
2021/07/24 00:39:44;;;;;;;8.30;5.40;;;;;;;;;;5081078;28;20511;-71
2021/07/24 00:42:16;;;;;;;8.30;6.23;;;;;;;;;;5080109;28;20448;-71
2021/07/24 00:44:47;;;;;;;8.30;5.40;;;;;;;;;;5078817;28;20469;-71
2021/07/24 00:47:18;;;;;;;8.80;6.00;;;;;;;;;;5078843;28;20944;-72
2021/07/24 00:49:46;;;;;;;9.80;6.37;;;;;;;;;;5079338;28;20452;-71
2021/07/24 00:52:15;;;;;;;7.90;5.90;;;;;;;;;;5078745;28;20880;-71
2021/07/24 00:54:43;;;;;;;12.23;6.00;;;;;;;;;;5058794;28;20793;-70
2021/07/24 00:57:13;;;;;;;7.67;6.00;;;;;;;;;;5058686;28;20461;-70
2021/07/24 00:59:40;;;;;;;7.80;5.23;;;;;;;;;;5058700;28;20489;-70
2021/07/24 01:02:08;;;;;;;10.53;5.63;;;;;;;;;;5058491;28;20542;-71
2021/07/24 01:04:37;;;;;;;8.60;5.97;;;;;;;;;;5064126;28;20954;-71
2021/07/24 01:07:07;;;;;;;9.63;4.97;;;;;;;;;;5078205;28;20453;-71
2021/07/24 01:09:35;;;;;;;9.80;6.27;;;;;;;;;;5078734;28;20461;-71
2021/07/24 01:12:09;;;;;;;10.30;6.47;;;;;;;;;;5078056;28;20502;-71
2021/07/24 01:14:38;;;;;;;8.30;6.00;;;;;;;;;;5078063;28;20461;-71
2021/07/24 01:17:06;;;;;;;7.50;5.17;;;;;;;;;;5064401;28;20468;-70
2021/07/24 01:19:34;;;;;;;7.37;5.73;;;;;;;;;;5058514;28;20493;-71
2021/07/24 01:22:03;;;;;;;8.27;5.83;;;;;;;;;;5059175;28;20456;-70
2021/07/24 01:24:31;;;;;;;10.50;6.60;;;;;;;;;;5059250;28;20564;-71
2021/07/24 01:26:58;;;;;;;11.07;5.93;;;;;;;;;;5057879;28;20449;-71
2021/07/24 01:29:26;;;;;;;10.90;6.07;;;;;;;;;;5059172;28;20578;-71
2021/07/24 01:31:56;;;;;;;7.70;5.50;;;;;;;;;;5058226;28;20817;-71
2021/07/24 01:34:23;;;;;;;7.27;4.70;;;;;;;;;;5057955;28;20466;-71
2021/07/24 01:36:52;;;;;;;9.97;5.90;;;;;;;;;;5061508;28;20495;-71
2021/07/24 01:39:21;;;;;;;8.43;5.90;;;;;;;;;;5077461;28;20571;-71
2021/07/24 01:41:48;;;;;;;7.30;5.00;;;;;;;;;;5077549;28;20444;-71
2021/07/24 01:44:17;;;;;;;10.10;6.10;;;;;;;;;;5087599;28;20517;-71
2021/07/24 01:46:48;;;;;;;9.37;5.70;;;;;;;;;;5077841;28;20444;-71
2021/07/24 01:52:46;;;;;;;7.73;5.23;;;;;;;;;;5077293;28;20536;-72
2021/07/24 01:55:05;;;;;;;8.30;5.37;;;;;;;;;;5069537;28;20435;-72
2021/07/24 01:57:35;;;;;;;8.80;5.37;;;;;;;;;;5078225;28;20882;-72
2021/07/24 02:00:09;;;;;;;10.70;5.80;;;;;;;;;;5075850;28;20528;-71
2021/07/24 02:02:37;;;;;;;10.13;6.70;;;;;;;;;;5064067;28;20452;-72
2021/07/24 02:05:06;;;;;;;10.13;5.73;;;;;;;;;;5076881;28;20938;-71
2021/07/24 02:07:36;;;;;;;11.77;6.40;;;;;;;;;;5077321;28;20445;-72
2021/07/24 02:10:06;;;;;;;14.20;6.17;;;;;;;;;;5079062;28;20483;-71
2021/07/24 02:12:36;;;;;;;10.20;6.43;;;;;;;;;;5076777;28;20456;-72
2021/07/24 02:15:04;;;;;;;10.43;7.07;;;;;;;;;;5077503;28;20500;-73
2021/07/24 02:17:32;;;;;;;12.40;6.90;;;;;;;;;;5077099;28;21015;-72
2021/07/24 02:20:01;;;;;;;11.57;6.30;;;;;;;;;;5077400;28;20862;-72
2021/07/24 02:22:29;;;;;;;11.00;6.27;;;;;;;;;;5077398;28;20449;-72
2021/07/24 02:24:56;;;;;;;11.80;6.60;;;;;;;;;;5077002;28;20946;-72
2021/07/24 02:27:25;;;;;;;8.97;5.57;;;;;;;;;;5077049;28;20448;-72
2021/07/24 02:29:53;;;;;;;9.23;5.70;;;;;;;;;;5077182;28;20522;-72
2021/07/24 02:32:21;;;;;;;14.43;7.53;;;;;;;;;;5076869;28;21013;-72
2021/07/24 02:34:49;;;;;;;9.43;5.87;;;;;;;;;;5078004;28;20514;-72
2021/07/24 02:37:17;;;;;;;9.50;5.20;;;;;;;;;;5076756;28;20456;-72
2021/07/24 02:39:45;;;;;;;9.20;5.47;;;;;;;;;;5061766;28;20485;-72
2021/07/24 02:42:14;;;;;;;12.50;6.10;;;;;;;;;;5058463;28;20843;-72
2021/07/24 02:44:43;;;;;;;10.40;5.70;;;;;;;;;;5056898;28;20548;-72
2021/07/24 02:47:11;;;;;;;13.30;6.47;;;;;;;;;;5060055;28;20496;-72
2021/07/24 02:49:38;;;;;;;10.70;6.37;;;;;;;;;;5077850;28;20452;-72
2021/07/24 02:52:06;;;;;;;10.33;5.83;;;;;;;;;;5077014;28;20468;-72
2021/07/24 02:54:34;;;;;;;11.70;5.80;;;;;;;;;;5077878;28;20472;-72
2021/07/24 02:57:02;;;;;;;12.03;6.70;;;;;;;;;;5077895;28;20514;-72
2021/07/24 02:59:30;;;;;;;10.23;6.47;;;;;;;;;;5076982;28;20468;-72
2021/07/24 03:02:00;;;;;;;12.17;6.60;;;;;;;;;;5077416;28;20532;-72
2021/07/24 03:04:29;;;;;;;11.07;6.97;;;;;;;;;;5076716;28;20456;-72
2021/07/24 03:06:56;;;;;;;12.00;6.23;;;;;;;;;;5057478;28;20453;-72
2021/07/24 03:09:24;;;;;;;11.70;8.07;;;;;;;;;;5058095;28;20491;-72
2021/07/24 03:11:52;;;;;;;9.87;6.23;;;;;;;;;;5056455;28;20885;-72
2021/07/24 03:14:20;;;;;;;10.20;6.30;;;;;;;;;;5057178;28;20462;-71
2021/07/24 03:16:48;;;;;;;11.90;6.50;;;;;;;;;;5056641;28;20453;-72
2021/07/24 03:19:17;;;;;;;10.30;6.63;;;;;;;;;;5055704;28;20560;-72
2021/07/24 03:21:45;;;;;;;14.17;6.10;;;;;;;;;;5056533;28;20528;-72
2021/07/24 03:24:12;;;;;;;13.77;6.40;;;;;;;;;;5062648;28;20456;-72
2021/07/24 03:26:41;;;;;;;13.73;6.57;;;;;;;;;;5076534;28;20452;-72
2021/07/24 03:29:09;;;;;;;10.60;6.10;;;;;;;;;;5076358;28;20464;-72
2021/07/24 03:31:36;;;;;;;9.60;6.00;;;;;;;;;;5075658;28;20457;-72
2021/07/24 03:34:04;;;;;;;11.13;7.00;;;;;;;;;;5076663;28;20452;-72
2021/07/24 03:36:33;;;;;;;10.90;5.57;;;;;;;;;;5079130;28;20456;-72
2021/07/24 03:39:01;;;;;;;11.80;6.47;;;;;;;;;;5081136;28;20452;-72
2021/07/24 03:41:29;;;;;;;14.00;7.30;;;;;;;;;;5079842;28;20589;-73
2021/07/24 03:43:57;;;;;;;9.73;5.97;;;;;;;;;;5075995;28;20526;-72
2021/07/24 03:46:26;;;;;;;15.57;7.50;;;;;;;;;;5069566;28;20879;-72
2021/07/24 03:48:54;;;;;;;15.80;6.80;;;;;;;;;;5080320;28;20950;-72
2021/07/24 03:51:22;;;;;;;10.37;6.50;;;;;;;;;;5080567;28;20925;-72
2021/07/24 03:53:52;;;;;;;10.77;7.03;;;;;;;;;;5079966;28;20452;-72
2021/07/24 03:56:20;;;;;;;11.37;7.63;;;;;;;;;;5081051;28;20500;-72
2021/07/24 03:58:50;;;;;;;10.70;6.27;;;;;;;;;;5075805;28;20453;-72
2021/07/24 04:01:19;;;;;;;11.40;6.60;;;;;;;;;;5059879;28;20580;-72
2021/07/24 04:03:47;;;;;;;11.03;6.83;;;;;;;;;;5061341;28;20850;-72
2021/07/24 04:06:18;;;;;;;15.10;6.97;;;;;;;;;;5061067;28;20513;-72
2021/07/24 04:08:46;;;;;;;15.07;7.17;;;;;;;;;;5060567;28;20518;-72
2021/07/24 04:11:16;;;;;;;12.83;7.50;;;;;;;;;;5060741;28;20571;-73
2021/07/24 04:13:43;;;;;;;10.13;6.87;;;;;;;;;;5060803;28;20523;-72
2021/07/24 04:16:11;;;;;;;13.03;7.40;;;;;;;;;;5060520;28;20511;-73
2021/07/24 04:18:39;;;;;;;14.87;8.27;;;;;;;;;;5059582;28;20523;-72
2021/07/24 04:21:07;;;;;;;11.03;6.77;;;;;;;;;;5059655;28;20906;-72
2021/07/24 04:23:35;;;;;;;10.70;6.70;;;;;;;;;;5059208;28;20453;-73
2021/07/24 04:26:03;;;;;;;12.00;7.63;;;;;;;;;;5059164;28;20457;-73
2021/07/24 04:28:32;;;;;;;10.73;6.80;;;;;;;;;;5059016;28;20519;-72
2021/07/24 04:30:59;;;;;;;15.07;7.77;;;;;;;;;;5059740;28;20457;-72
2021/07/24 04:33:27;;;;;;;11.37;7.10;;;;;;;;;;5059640;28;20909;-72
2021/07/24 04:35:55;;;;;;;12.43;7.73;;;;;;;;;;5058800;28;20480;-73
2021/07/24 04:38:23;;;;;;;15.60;8.87;;;;;;;;;;5059487;28;20493;-72
2021/07/24 04:40:51;;;;;;;12.00;7.60;;;;;;;;;;5069389;28;20515;-72
2021/07/24 04:43:19;;;;;;;9.63;7.00;;;;;;;;;;5079020;28;20533;-72
2021/07/24 04:45:48;;;;;;;12.30;7.10;;;;;;;;;;5078600;28;20551;-72
2021/07/24 04:48:16;;;;;;;11.40;6.60;;;;;;;;;;5079129;28;20501;-72
2021/07/24 04:50:45;;;;;;;12.40;7.30;;;;;;;;;;5078471;28;20440;-73
2021/07/24 04:53:13;;;;;;;12.20;7.13;;;;;;;;;;5078940;28;20498;-73
2021/07/24 04:55:41;;;;;;;12.43;7.17;;;;;;;;;;5079005;28;20476;-73
2021/07/24 04:58:10;;;;;;;15.17;7.37;;;;;;;;;;5078509;28;20873;-72
2021/07/24 05:00:39;;;;;;;12.93;7.73;;;;;;;;;;5061924;28;20512;-72
2021/07/24 05:03:10;;;;;;;15.53;7.13;;;;;;;;;;5058739;28;20493;-72
2021/07/24 05:05:38;;;;;;;15.00;7.90;;;;;;;;;;5058847;28;20514;-73
2021/07/24 05:08:06;;;;;;;10.27;7.43;;;;;;;;;;5058351;28;20465;-73
2021/07/24 05:10:34;;;;;;;10.00;6.87;;;;;;;;;;5058562;28;20498;-73
2021/07/24 05:13:01;;;;;;;11.20;7.60;;;;;;;;;;5071565;28;20868;-73
2021/07/24 05:15:29;;;;;;;10.47;7.17;;;;;;;;;;5078424;28;20939;-73
2021/07/24 05:18:00;;;;;;;9.10;6.10;;;;;;;;;;5078594;28;20925;-73
2021/07/24 05:20:30;;;;;;;9.10;7.67;;;;;;;;;;5078263;28;20492;-73
2021/07/24 05:22:58;;;;;;;9.77;7.50;;;;;;;;;;5077864;28;20881;-73
2021/07/24 05:25:26;;;;;;;11.53;7.37;;;;;;;;;;5078291;28;20468;-73
2021/07/24 05:27:53;;;;;;;9.67;7.37;;;;;;;;;;5060360;28;20458;-73
2021/07/24 05:30:21;;;;;;;8.47;6.57;;;;;;;;;;5058334;28;20522;-73
2021/07/24 05:32:49;;;;;;;11.47;7.60;;;;;;;;;;5058172;28;20461;-73
2021/07/24 05:35:17;;;;;;;8.60;6.63;;;;;;;;;;5057670;28;20461;-73
2021/07/24 05:37:47;;;;;;;10.40;8.00;;;;;;;;;;5064166;28;20521;-73
2021/07/24 05:40:15;;;;;;;8.90;6.90;;;;;;;;;;5078315;28;20456;-73
2021/07/24 05:43:10;;;;;;;11.50;7.07;;;;;;;;;;5079180;28;20464;-73
2021/07/24 05:45:37;;;;;;;10.23;7.20;;;;;;;;;;5077806;28;20452;-72
2021/07/24 05:48:05;;;;;;;9.17;7.00;;;;;;;;;;5078481;28;20471;-72
2021/07/24 05:50:32;;;;;;;12.30;7.40;;;;;;;;;;5077718;28;20782;-73
2021/07/24 05:53:01;;;;;;;12.10;8.33;;;;;;;;;;5060229;28;20511;-72
2021/07/24 05:55:29;;;;;;;12.03;8.20;;;;;;;;;;5068862;28;20460;-73
2021/07/24 05:57:57;;;;;;;19.97;8.77;;;;;;;;;;5078195;28;20458;-72
2021/07/24 06:00:25;;;;;;;10.87;7.63;;;;;;;;;;5077329;28;20460;-72
2021/07/24 06:02:52;;;;;;;9.70;7.00;;;;;;;;;;5077383;28;20759;-72
2021/07/24 06:05:20;;;;;;;10.10;7.40;;;;;;;;;;5077155;28;20470;-72
2021/07/24 06:08:07;;;;;;;;;;;;;;;;;;;;;
2021/07/24 06:10:36;;;;;;;17.67;8.60;;;;;;;;;;5046788;28;20457;-73
2021/07/24 06:13:05;;;;;;;9.90;8.03;;;;;;;;;;5076876;28;20449;-73
2021/07/24 06:15:32;;;;;;;9.40;7.80;;;;;;;;;;5077005;28;20452;-73
2021/07/24 06:18:00;;;;;;;12.63;8.33;;;;;;;;;;5076872;28;20449;-73
2021/07/24 06:20:27;;;;;;;8.23;6.47;;;;;;;;;;5087779;28;20448;-73
2021/07/24 06:22:55;;;;;;;13.90;8.40;;;;;;;;;;5098099;28;20448;-73
2021/07/24 06:25:24;;;;;;;12.07;7.40;;;;;;;;;;5097535;28;20463;-73
2021/07/24 06:27:53;;;;;;;8.97;8.03;;;;;;;;;;5074313;28;20449;-73
2021/07/24 06:30:21;;;;;;;9.10;7.00;;;;;;;;;;5073156;28;20501;-73
2021/07/24 06:32:49;;;;;;;10.70;7.47;;;;;;;;;;5077736;28;20441;-72
2021/07/24 06:35:16;;;;;;;15.00;8.17;;;;;;;;;;5076430;28;20525;-72
2021/07/24 06:37:44;;;;;;;10.23;7.20;;;;;;;;;;5075968;28;20456;-72
2021/07/24 06:40:13;;;;;;;13.13;7.87;;;;;;;;;;5076643;28;20456;-72
2021/07/24 06:42:40;;;;;;;11.57;7.27;;;;;;;;;;5076038;28;20476;-72
2021/07/24 06:45:10;;;;;;;13.27;7.77;;;;;;;;;;5076398;28;20452;-72
2021/07/24 06:47:39;;;;;;;9.00;7.13;;;;;;;;;;5076539;28;20764;-70
2021/07/24 06:50:10;;;;;;;12.83;7.70;;;;;;;;;;5076784;28;20536;-72
2021/07/24 06:52:37;;;;;;;11.83;7.50;;;;;;;;;;5075926;28;20440;-72
2021/07/24 06:55:09;;;;;;;9.20;7.30;;;;;;;;;;5062613;28;20465;-72
2021/07/24 06:57:38;;;;;;;12.77;8.20;;;;;;;;;;5056482;28;20767;-72
2021/07/24 07:00:06;;;;;;;11.00;7.23;;;;;;;;;;5058968;28;20455;-73
2021/07/24 07:02:37;;;;;;;12.10;6.60;;;;;;;;;;5065762;28;20488;-72
2021/07/24 07:05:06;;;;;;;11.13;7.50;;;;;;;;;;5075219;28;20459;-72
2021/07/24 07:07:33;;;;;;;6.63;5.93;;;;;;;;;;5069348;28;20488;-73
2021/07/24 07:10:02;;;;;;;9.23;5.93;;;;;;;;;;5075285;28;20467;-73
2021/07/24 07:12:30;;;;;;;10.57;7.90;;;;;;;;;;5061228;28;20531;-72
2021/07/24 07:15:01;;;;;;;8.80;6.73;;;;;;;;;;5068648;28;20800;-73
2021/07/24 07:17:29;;;;;;;10.37;7.83;;;;;;;;;;5074724;28;20464;-72
2021/07/24 07:19:58;;;;;;;10.33;6.33;;;;;;;;;;5069024;28;20500;-73
2021/07/24 07:22:26;;;;;;;11.40;7.77;;;;;;;;;;5074584;28;20488;-73
2021/07/24 07:24:54;;;;;;;15.97;7.50;;;;;;;;;;5071473;28;20472;-73
2021/07/24 07:27:24;;;;;;;10.13;7.40;;;;;;;;;;5073881;28;20479;-72
2021/07/24 07:29:55;;;;;;;10.13;6.97;;;;;;;;;;5075460;28;20449;-72
2021/07/24 07:32:23;;;;;;;9.63;6.73;;;;;;;;;;5074468;28;21042;-72
2021/07/24 07:34:55;;;;;;;9.77;6.40;;;;;;;;;;5074368;28;20865;-73
2021/07/24 07:37:34;;;;;;;11.40;5.90;;;;;;;;;;5071098;28;20848;-73
2021/07/24 07:40:01;;;;;;;11.70;6.57;;;;;;;;;;5077226;28;20448;-73
2021/07/24 07:42:29;;;;;;;8.30;5.80;;;;;;;;;;5071827;28;20942;-72
2021/07/24 07:44:57;;;;;;;9.50;7.00;;;;;;;;;;5068869;28;20453;-72
2021/07/24 07:47:24;;;;;;;10.93;5.80;;;;;;;;;;5073736;28;20464;-73
2021/07/24 07:49:52;;;;;;;7.10;5.73;;;;;;;;;;5074477;28;20896;-73
2021/07/24 07:52:20;;;;;;;10.43;6.90;;;;;;;;;;5076784;28;20484;-73
2021/07/24 07:54:50;;;;;;;9.97;6.90;;;;;;;;;;5072660;28;20452;-73
2021/07/24 07:57:24;;;;;;;7.80;5.37;;;;;;;;;;5075894;28;20453;-73
2021/07/24 07:59:52;;;;;;;11.60;5.47;;;;;;;;;;5076532;28;20590;-72
2021/07/24 08:02:20;;;;;;;8.20;5.70;;;;;;;;;;5073245;28;20583;-73
2021/07/24 08:04:49;;;;;;;6.03;4.90;;;;;;;;;;5067919;28;20449;-72
2021/07/24 08:07:17;;;;;;;6.00;4.87;;;;;;;;;;5066161;28;20496;-73
2021/07/24 08:09:46;;;;;;;5.97;4.67;;;;;;;;;;5072017;28;20457;-73
2021/07/24 08:12:15;;;;;;;8.13;5.60;;;;;;;;;;5074760;28;20563;-72
2021/07/24 08:14:43;;;;;;;8.73;5.20;;;;;;;;;;5060983;28;20448;-72
2021/07/24 08:17:10;;;;;;;10.17;6.00;;;;;;;;;;5075356;28;20452;-72
2021/07/24 08:19:39;;;;;;;7.67;5.00;;;;;;;;;;5074552;28;20740;-73
2021/07/24 08:22:07;;;;;;;7.00;4.70;;;;;;;;;;5077463;28;20499;-72
2021/07/24 08:24:34;;;;;;;9.40;5.57;;;;;;;;;;5079816;28;20448;-73
2021/07/24 08:27:05;;;;;;;7.23;5.30;;;;;;;;;;5078517;28;20456;-73
2021/07/24 08:29:34;;;;;;;8.00;5.33;;;;;;;;;;5070390;28;20449;-72
2021/07/24 08:32:02;;;;;;;6.07;4.87;;;;;;;;;;5071929;28;20544;-72
2021/07/24 08:34:29;;;;;;;8.60;4.70;;;;;;;;;;5080927;28;20462;-72
2021/07/24 08:36:58;;;;;;;6.47;5.00;;;;;;;;;;5076889;28;20464;-72
2021/07/24 08:39:26;;;;;;;8.37;5.00;;;;;;;;;;5063003;28;20445;-71
2021/07/24 08:41:54;;;;;;;5.60;4.53;;;;;;;;;;5068726;28;21080;-72
2021/07/24 08:44:22;;;;;;;9.60;4.47;;;;;;;;;;5066435;28;20468;-72
2021/07/24 08:46:51;;;;;;;8.67;4.60;;;;;;;;;;5068522;28;20571;-72
2021/07/24 08:49:18;;;;;;;7.97;5.10;;;;;;;;;;5078511;28;20464;-72
2021/07/24 08:51:47;;;;;;;4.70;3.93;;;;;;;;;;5079781;28;20535;-72
2021/07/24 08:54:16;;;;;;;6.73;4.43;;;;;;;;;;5078359;28;21035;-71
2021/07/24 08:56:46;;;;;;;6.93;4.30;;;;;;;;;;5083527;28;20448;-71
2021/07/24 08:59:22;;;;;;;5.80;3.80;;;;;;;;;;5094670;28;20562;-71
2021/07/24 09:01:54;;;;;;;7.93;5.47;;;;;;;;;;5076617;28;20487;-72
2021/07/24 09:04:24;;;;;;;8.93;4.80;;;;;;;;;;5077086;28;20552;-71
2021/07/24 09:06:57;;;;;;;8.13;4.70;;;;;;;;;;5076411;28;20472;-72
2021/07/24 09:09:25;;;;;;;7.57;4.63;;;;;;;;;;5075969;28;20457;-71
2021/07/24 09:11:53;;;;;;;8.80;5.33;;;;;;;;;;5077098;28;20803;-71
2021/07/24 09:14:21;;;;;;;5.30;4.13;;;;;;;;;;5077207;28;20502;-71
2021/07/24 09:16:50;;;;;;;7.00;4.10;;;;;;;;;;5069629;28;20453;-71
2021/07/24 09:19:23;;;;;;;8.93;4.40;;;;;;;;;;5071867;28;20551;-71
2021/07/24 09:21:51;;;;;;;5.37;4.57;;;;;;;;;;5076899;28;20879;-72
2021/07/24 09:24:22;;;;;;;7.90;4.57;;;;;;;;;;5059817;28;20737;-72
2021/07/24 09:26:50;;;;;;;5.93;4.10;;;;;;;;;;5060363;28;20453;-72
2021/07/24 09:29:18;;;;;;;6.00;4.10;;;;;;;;;;5076198;28;20455;-72
2021/07/24 09:31:47;;;;;;;6.57;4.40;;;;;;;;;;5078465;28;20464;-72
2021/07/24 09:34:18;;;;;;;5.90;3.90;;;;;;;;;;5071851;28;20814;-71
2021/07/24 09:36:47;;;;;;;6.20;3.70;;;;;;;;;;5058081;28;20553;-72
2021/07/24 09:39:16;;;;;;;4.73;3.93;;;;;;;;;;5065314;28;20478;-72
2021/07/24 09:41:48;;;;;;;5.33;3.83;;;;;;;;;;5076259;28;20524;-72
2021/07/24 09:44:31;;;;;;;6.77;4.60;;;;;;;;;;5062426;28;21013;-72
2021/07/24 09:47:01;;;;;;;5.93;3.63;;;;;;;;;;5065574;28;20531;-73
2021/07/24 09:49:35;;;;;;;4.97;4.00;;;;;;;;;;5071705;28;20449;-71
2021/07/24 09:52:14;;;;;;;6.47;3.83;;;;;;;;;;5067351;28;20537;-73
2021/07/24 09:54:42;;;;;;;4.70;3.67;;;;;;;;;;5074042;28;20544;-73
2021/07/24 09:57:31;;;;;;;5.90;4.37;;;;;;;;;;5074869;28;20484;-73
2021/07/24 10:00:24;;;;;;;11.30;4.93;;;;;;;;;;5066992;28;20449;-72
2021/07/24 10:02:59;;;;;;;7.53;4.53;;;;;;;;;;5068291;28;20476;-72
2021/07/24 10:05:35;;;;;;;5.83;4.73;;;;;;;;;;5060594;28;20476;-72
2021/07/24 10:08:06;;;;;;;6.33;4.20;;;;;;;;;;5072895;28;20522;-72
2021/07/24 10:10:40;;;;;;;10.07;4.90;;;;;;;;;;5078338;28;20453;-73
2021/07/24 10:13:22;;;;;;;4.47;3.90;;;;;;;;;;5077095;28;20445;-73
2021/07/24 10:15:53;;;;;;;6.50;4.50;;;;;;;;;;5077030;28;21035;-72
2021/07/24 10:18:29;;;;;;;5.87;4.90;;;;;;;;;;5075389;28;20441;-72
2021/07/24 10:20:57;;;;;;;6.60;4.40;;;;;;;;;;5076208;28;20448;-73
2021/07/24 10:23:26;;;;;;;6.57;5.03;;;;;;;;;;5076110;28;20492;-72
2021/07/24 10:25:57;;;;;;;7.90;5.00;;;;;;;;;;5076138;28;20794;-71
2021/07/24 10:28:31;;;;;;;6.90;5.90;;;;;;;;;;5075821;28;20514;-71
2021/07/24 10:31:19;;;;;;;6.97;5.07;;;;;;;;;;5065015;28;20440;-72
2021/07/24 10:33:48;;;;;;;7.00;5.37;;;;;;;;;;5066669;28;20836;-73
2021/07/24 10:36:20;;;;;;;5.57;4.13;;;;;;;;;;5077858;28;20475;-72
2021/07/24 10:39:05;;;;;;;13.17;5.37;;;;;;;;;;5067210;28;21070;-72
2021/07/24 10:41:39;;;;;;;5.00;4.37;;;;;;;;;;5064699;28;20555;-72
2021/07/24 10:44:07;;;;;;;5.77;4.87;;;;;;;;;;5075597;28;20452;-72
2021/07/24 10:47:00;;;;;;;7.00;6.30;;;;;;;;;;5066387;28;20480;-72
2021/07/24 10:50:08;;;;;;;7.67;5.77;;;;;;;;;;5068112;28;20873;-72
2021/07/24 10:53:10;;;;;;;7.60;6.33;;;;;;;;;;5072198;28;20453;-74
2021/07/24 10:55:41;;;;;;;10.70;5.60;;;;;;;;;;5064890;28;20437;-71
2021/07/24 10:58:37;;;;;;;10.70;6.70;;;;;;;;;;5075320;28;20477;-72
2021/07/24 11:01:14;;;;;;;7.73;6.03;;;;;;;;;;5061759;28;20476;-71
2021/07/24 11:04:08;;;;;;;8.30;5.10;;;;;;;;;;5071836;28;20512;-73
2021/07/24 11:06:42;;;;;;;8.10;5.40;;;;;;;;;;5049621;28;20456;-71
2021/07/24 11:09:24;;;;;;;10.53;5.90;;;;;;;;;;5065805;28;20478;-71
2021/07/24 11:12:15;;;;;;;15.40;12.50;;;;;;;;;;5063140;28;20963;-71
2021/07/24 11:15:08;;;;;;;10.03;5.40;;;;;;;;;;5057700;28;20457;-72
2021/07/24 11:17:56;;;;;;;7.10;5.17;;;;;;;;;;5075895;28;20481;-73
2021/07/24 11:20:32;;;;;;;11.13;6.00;;;;;;;;;;5070822;28;20896;-72
2021/07/24 11:23:03;;;;;;;8.80;6.40;;;;;;;;;;5056985;28;20545;-72
2021/07/24 11:25:43;;;;;;;6.80;6.10;;;;;;;;;;5070436;28;20464;-73
2021/07/24 11:28:17;;;;;;;7.67;5.30;;;;;;;;;;5076644;28;20531;-71
2021/07/24 11:34:00;;;;;;;6.80;5.20;;;;;;;;;;5061667;28;20468;-70
2021/07/24 11:36:34;;;;;;;8.97;6.07;;;;;;;;;;5077054;28;20464;-73
2021/07/24 11:39:03;;;;;;;6.80;6.10;;;;;;;;;;5076392;28;20444;-71
2021/07/24 11:41:52;;;;;;;14.67;6.20;;;;;;;;;;5076541;28;20532;-73
2021/07/24 11:44:35;;;;;;;9.43;6.17;;;;;;;;;;5075787;28;20449;-71
2021/07/24 11:47:06;;;;;;;7.40;6.30;;;;;;;;;;5095508;28;20447;-72
2021/07/24 11:49:43;;;;;;;9.57;6.93;;;;;;;;;;5097531;28;20891;-71
2021/07/24 11:52:12;;;;;;;9.47;7.00;;;;;;;;;;5095573;28;20455;-71
2021/07/24 11:54:43;;;;;;;8.73;6.30;;;;;;;;;;5092416;28;21018;-71
2021/07/24 11:57:20;;;;;;;6.20;5.60;;;;;;;;;;5076156;28;20822;-72
2021/07/24 11:59:50;;;;;;;7.47;6.33;;;;;;;;;;5061734;28;20459;-72
2021/07/24 12:02:28;;;;;;;10.27;6.70;;;;;;;;;;5061984;28;20548;-72
2021/07/24 12:05:12;;;;;;;12.27;7.07;;;;;;;;;;5064467;28;20451;-73
2021/07/24 12:07:47;;;;;;;12.03;7.73;;;;;;;;;;5061346;28;20496;-72
2021/07/24 12:16:09;;;;;;;10.93;7.33;;;;;;;;;;5098232;28;20435;-74
2021/07/24 12:18:47;;;;;;;7.47;6.70;;;;;;;;;;5100083;28;20546;-72
2021/07/24 12:21:25;;;;;;;10.50;9.17;;;;;;;;;;5080661;28;20795;-73
2021/07/24 12:24:04;;;;;;;9.10;7.77;;;;;;;;;;5079611;28;20560;-73
2021/07/24 12:26:36;;;;;;;9.50;7.83;;;;;;;;;;5080144;28;20456;-74
2021/07/24 12:29:25;;;;;;;7.90;6.57;;;;;;;;;;5064135;28;20752;-72
2021/07/24 12:31:54;;;;;;;11.70;7.50;;;;;;;;;;5085874;28;20448;-73
2021/07/24 12:34:26;;;;;;;10.23;7.40;;;;;;;;;;5099409;28;20546;-73
2021/07/24 12:39:44;;;;;;;9.30;7.83;;;;;;;;;;5118403;28;20828;-73
2021/07/24 12:42:18;;;;;;;15.80;13.80;;;;;;;;;;5120529;28;20458;-72
2021/07/24 12:45:04;;;;;;;10.60;8.40;;;;;;;;;;5102144;28;20545;-73
2021/07/24 12:47:42;;;;;;;9.50;8.20;;;;;;;;;;5098586;28;20451;-73
2021/07/24 12:50:18;;;;;;;7.63;6.80;;;;;;;;;;5101011;28;20462;-73
2021/07/24 12:52:52;;;;;;;7.50;6.10;;;;;;;;;;5100451;28;20474;-73
2021/07/24 12:55:35;;;;;;;10.13;7.80;;;;;;;;;;5099433;28;20494;-73
2021/07/24 12:58:12;;;;;;;10.33;7.67;;;;;;;;;;5098778;28;20600;-72
2021/07/24 13:00:42;;;;;;;13.47;8.47;;;;;;;;;;5099859;28;20797;-72
2021/07/24 13:03:12;;;;;;;10.67;7.23;;;;;;;;;;5098864;28;20475;-74
2021/07/24 13:05:40;;;;;;;10.17;7.47;;;;;;;;;;5097592;28;20463;-73
2021/07/24 13:08:15;;;;;;;10.30;7.80;;;;;;;;;;5095620;28;20863;-72
2021/07/24 13:10:46;;;;;;;11.00;7.63;;;;;;;;;;5099663;28;20482;-72
2021/07/24 13:13:19;;;;;;;10.70;7.60;;;;;;;;;;5095553;28;20483;-73
2021/07/24 13:15:47;;;;;;;8.17;7.20;;;;;;;;;;5098504;28;20467;-74
2021/07/24 13:18:16;;;;;;;9.50;7.90;;;;;;;;;;5096284;28;20486;-74
2021/07/24 13:20:48;;;;;;;10.63;7.70;;;;;;;;;;5098981;28;20513;-75
2021/07/24 13:23:20;;;;;;;12.30;7.90;;;;;;;;;;5097048;28;20475;-72
2021/07/24 13:28:13;;;;;;;12.10;7.90;;;;;;;;;;5094955;28;20747;-73
2021/07/24 13:28:55;;;;;;;9.37;8.00;;;;;;;;;;5094966;28;20448;-74
2021/07/24 13:31:23;;;;;;;8.87;7.30;;;;;;;;;;5094106;28;20459;-73
2021/07/24 13:33:55;;;;;;;10.90;8.83;;;;;;;;;;5096290;28;20456;-74
2021/07/24 13:36:27;;;;;;;11.17;8.57;;;;;;;;;;5097884;28;20466;-73
2021/07/24 13:38:57;;;;;;;10.53;7.83;;;;;;;;;;5095957;28;20475;-73
2021/07/24 13:41:26;;;;;;;7.73;6.93;;;;;;;;;;5094837;28;20447;-73
2021/07/24 13:43:54;;;;;;;8.90;7.90;;;;;;;;;;5096665;28;20486;-72
2021/07/24 13:46:22;;;;;;;10.03;8.03;;;;;;;;;;5096076;28;20455;-72
2021/07/24 13:48:50;;;;;;;9.30;8.37;;;;;;;;;;5094468;28;20535;-72
2021/07/24 13:51:26;;;;;;;11.07;9.20;;;;;;;;;;5095602;28;20567;-74
2021/07/24 13:53:54;;;;;;;10.30;8.93;;;;;;;;;;5095481;28;20459;-73
2021/07/24 13:56:26;;;;;;;9.47;7.63;;;;;;;;;;5097450;28;20455;-73
2021/07/24 13:58:54;;;;;;;10.20;8.10;;;;;;;;;;5096049;28;20526;-73
2021/07/24 14:01:22;;;;;;;12.40;7.67;;;;;;;;;;5096815;28;20459;-73
2021/07/24 14:03:52;;;;;;;10.70;7.47;;;;;;;;;;5096850;28;20487;-72
2021/07/24 14:06:20;;;;;;;9.97;7.60;;;;;;;;;;5094231;28;20785;-71
2021/07/24 14:08:47;;;;;;;9.70;8.23;;;;;;;;;;5098008;28;20456;-73
2021/07/24 14:11:16;;;;;;;10.40;8.70;;;;;;;;;;5097433;28;20510;-73
2021/07/24 14:13:46;;;;;;;10.17;7.70;;;;;;;;;;5098603;28;20483;-73
2021/07/24 14:16:15;;;;;;;9.70;7.70;;;;;;;;;;5099165;28;20459;-74
2021/07/24 14:18:46;;;;;;;13.03;8.90;;;;;;;;;;5094972;28;20455;-75
2021/07/24 14:21:17;;;;;;;11.70;8.00;;;;;;;;;;5095867;28;20468;-73
2021/07/24 14:23:48;;;;;;;10.37;8.27;;;;;;;;;;5097289;28;20586;-72
2021/07/24 14:26:16;;;;;;;8.83;7.20;;;;;;;;;;5079170;28;20464;-72
2021/07/24 14:28:45;;;;;;;9.03;7.90;;;;;;;;;;5077157;28;20525;-73
2021/07/24 14:31:12;;;;;;;13.50;9.20;;;;;;;;;;5094238;28;20878;-73
2021/07/24 14:33:40;;;;;;;8.90;7.90;;;;;;;;;;5097311;28;20463;-72
2021/07/24 14:36:09;;;;;;;10.57;8.10;;;;;;;;;;5095922;28;20458;-73
2021/07/24 14:38:37;;;;;;;8.87;7.20;;;;;;;;;;5096535;28;20550;-73
2021/07/24 14:41:05;;;;;;;10.17;7.50;;;;;;;;;;5097082;28;20546;-73
2021/07/24 14:43:34;;;;;;;11.00;9.27;;;;;;;;;;5096050;28;20553;-73
2021/07/24 14:46:03;;;;;;;10.50;8.03;;;;;;;;;;5096355;28;20887;-73
2021/07/24 14:48:31;;;;;;;10.87;7.80;;;;;;;;;;5087005;28;20768;-73
2021/07/24 14:50:59;;;;;;;9.33;7.93;;;;;;;;;;5093601;28;20728;-73
2021/07/24 14:53:29;;;;;;;12.40;8.43;;;;;;;;;;5097283;28;20955;-73
2021/07/24 14:55:57;;;;;;;19.30;8.10;;;;;;;;;;5096442;28;20463;-74
2021/07/24 14:58:27;;;;;;;10.10;7.50;;;;;;;;;;5097305;28;20523;-73
2021/07/24 15:00:56;;;;;;;11.33;7.83;;;;;;;;;;5095231;28;20470;-74
2021/07/24 15:03:26;;;;;;;10.50;9.30;;;;;;;;;;5076635;28;20498;-74
2021/07/24 15:05:54;;;;;;;9.57;7.97;;;;;;;;;;5075602;28;20513;-73
2021/07/24 15:08:24;;;;;;;10.13;9.10;;;;;;;;;;5076694;28;20769;-72
2021/07/24 15:10:52;;;;;;;13.13;8.30;;;;;;;;;;5081104;28;20459;-73
2021/07/24 15:13:19;;;;;;;12.00;8.03;;;;;;;;;;5088437;28;20459;-72